Time;durP1;ratioP1;P1;durP2;ratioP2;P2;SDS_P1;SDS_P2;PMS_P1;PMS_P2;Temp;Humidity;BMP_temperature;BMP_pressure;BME280_temperature;BME280_humidity;BME280_pressure;Samples;Min_cycle;Max_cycle;Signal;HPM_P1;HPM_P2
2023/03/27 00:01:41;;;;;;;18.43;2.13;;;3.90;99.90;;;;;;5163481;28;20212;-49
2023/03/27 00:04:14;;;;;;;6.17;1.83;;;3.90;99.90;;;;;;5162612;28;20588;-48
2023/03/27 00:06:44;;;;;;;6.40;1.67;;;3.90;99.90;;;;;;5166829;28;20437;-51
2023/03/27 00:09:16;;;;;;;5.67;1.57;;;3.80;99.90;;;;;;5165345;28;20452;-49
2023/03/27 00:11:47;;;;;;;2.43;1.50;;;3.80;99.90;;;;;;5164281;28;20711;-49
2023/03/27 00:14:17;;;;;;;5.73;1.93;;;3.80;99.90;;;;;;5164652;28;20446;-48
2023/03/27 00:16:49;;;;;;;1.67;1.30;;;3.80;99.90;;;;;;5171155;28;20728;-48
2023/03/27 00:19:20;;;;;;;7.70;1.70;;;3.70;99.90;;;;;;5168282;28;20654;-50
2023/03/27 00:21:52;;;;;;;6.23;1.60;;;3.60;99.90;;;;;;5168161;28;20436;-49
2023/03/27 00:24:22;;;;;;;3.00;2.00;;;3.70;99.90;;;;;;5170918;28;20220;-48
2023/03/27 00:26:53;;;;;;;2.30;1.50;;;3.70;99.90;;;;;;5169867;28;20433;-48
2023/03/27 00:29:24;;;;;;;3.30;1.73;;;3.70;99.90;;;;;;5168132;28;20173;-47
2023/03/27 00:31:55;;;;;;;4.73;1.67;;;3.70;99.90;;;;;;5150232;28;20997;-49
2023/03/27 00:34:26;;;;;;;8.27;2.03;;;3.70;99.90;;;;;;5166073;28;20211;-48
2023/03/27 00:36:56;;;;;;;4.73;2.00;;;3.80;99.90;;;;;;5167155;28;20436;-49
2023/03/27 00:39:27;;;;;;;4.93;2.00;;;3.80;99.90;;;;;;5170459;28;20185;-47
2023/03/27 00:41:58;;;;;;;1.63;1.53;;;3.80;99.90;;;;;;5167234;28;20186;-49
2023/03/27 00:44:33;;;;;;;11.73;1.90;;;3.90;99.90;;;;;;5169987;28;20855;-49
2023/03/27 00:47:08;;;;;;;6.20;1.50;;;3.90;99.90;;;;;;5169377;28;20239;-48
2023/03/27 00:49:39;;;;;;;1.67;1.17;;;3.90;99.90;;;;;;5168454;28;20991;-48
2023/03/27 00:52:12;;;;;;;3.80;1.90;;;3.80;99.90;;;;;;5154688;28;20425;-47
2023/03/27 00:54:44;;;;;;;4.13;1.23;;;3.80;99.90;;;;;;5169074;28;20492;-48
2023/03/27 00:57:18;;;;;;;7.47;1.67;;;3.80;99.90;;;;;;5170155;28;20491;-48
2023/03/27 00:59:51;;;;;;;2.50;1.30;;;3.70;99.90;;;;;;5168787;28;20492;-47
2023/03/27 01:02:23;;;;;;;7.70;2.20;;;3.80;99.90;;;;;;5164704;28;20459;-47
2023/03/27 01:04:54;;;;;;;1.47;1.30;;;3.80;99.90;;;;;;5166962;28;20469;-47
2023/03/27 01:07:27;;;;;;;1.43;1.30;;;3.80;99.90;;;;;;5166491;28;20440;-50
2023/03/27 01:09:58;;;;;;;2.47;1.10;;;3.60;99.90;;;;;;5163395;28;20524;-49
2023/03/27 01:12:46;;;;;;;3.53;1.73;;;3.70;99.90;;;;;;5165260;28;20455;-47
2023/03/27 01:15:44;;;;;;;4.80;1.90;;;3.60;99.90;;;;;;5167625;28;20984;-48
2023/03/27 01:18:35;;;;;;;1.50;1.37;;;3.40;99.90;;;;;;5164555;28;20440;-48
2023/03/27 01:21:08;;;;;;;4.63;1.50;;;3.30;99.90;;;;;;5165629;28;20491;-48
2023/03/27 01:24:05;;;;;;;2.77;1.40;;;3.30;99.90;;;;;;5165801;28;20473;-48
2023/03/27 01:26:56;;;;;;;2.30;1.10;;;3.30;99.90;;;;;;5164731;28;20424;-48
2023/03/27 01:29:43;;;;;;;1.63;1.30;;;3.30;99.90;;;;;;5164519;28;20428;-49
2023/03/27 01:32:48;;;;;;;6.67;1.50;;;3.30;99.90;;;;;;5168460;28;20412;-49
2023/03/27 01:35:25;;;;;;;2.67;1.80;;;3.40;99.90;;;;;;5165644;28;20543;-48
2023/03/27 01:38:22;;;;;;;5.27;2.00;;;3.50;99.90;;;;;;5166992;28;20527;-48
2023/03/27 01:41:08;;;;;;;4.47;1.93;;;3.50;99.90;;;;;;5168821;28;20416;-48
2023/03/27 01:43:41;;;;;;;4.20;1.67;;;3.50;99.90;;;;;;5168398;28;20463;-48
2023/03/27 01:46:21;;;;;;;4.57;1.20;;;3.60;99.90;;;;;;5168615;28;20428;-49
2023/03/27 01:49:17;;;;;;;4.33;1.40;;;3.60;99.90;;;;;;5167701;28;20432;-49
2023/03/27 01:51:55;;;;;;;1.10;1.00;;;3.40;99.90;;;;;;5167623;28;20918;-48
2023/03/27 01:54:34;;;;;;;4.33;1.60;;;3.30;99.90;;;;;;5167161;28;20467;-49
2023/03/27 01:57:15;;;;;;;2.50;1.17;;;3.20;99.90;;;;;;5166263;28;20857;-50
2023/03/27 01:59:50;;;;;;;4.60;1.27;;;3.10;99.90;;;;;;5166922;28;20498;-48
2023/03/27 02:02:32;;;;;;;1.60;1.50;;;3.00;99.90;;;;;;5163995;28;20468;-50
2023/03/27 02:05:08;;;;;;;1.37;1.20;;;3.10;99.90;;;;;;5163876;28;20451;-48
2023/03/27 02:07:46;;;;;;;2.00;0.97;;;3.10;99.90;;;;;;5162238;28;20519;-50
2023/03/27 02:10:26;;;;;;;0.97;0.97;;;3.00;99.90;;;;;;5163901;28;20523;-50
2023/03/27 02:13:07;;;;;;;2.13;1.30;;;3.00;99.90;;;;;;5165536;28;21070;-49
2023/03/27 02:15:42;;;;;;;0.73;0.73;;;3.00;99.90;;;;;;5165525;28;20458;-48
2023/03/27 02:18:18;;;;;;;1.30;1.17;;;3.00;99.90;;;;;;5167482;28;20436;-50
2023/03/27 02:20:48;;;;;;;3.07;0.77;;;2.90;99.90;;;;;;5164757;28;20449;-50
2023/03/27 02:23:21;;;;;;;0.93;0.93;;;2.90;99.90;;;;;;5167747;28;20482;-46
2023/03/27 02:25:53;;;;;;;1.80;1.40;;;3.00;99.90;;;;;;5165604;28;20530;-49
2023/03/27 02:29:03;;;;;;;2.73;1.97;;;2.90;99.90;;;;;;5162748;28;20432;-49
2023/03/27 02:32:02;;;;;;;1.67;1.47;;;2.70;99.90;;;;;;5160325;28;20435;-48
2023/03/27 02:34:39;;;;;;;1.83;1.37;;;2.70;99.90;;;;;;5164155;28;20523;-48
2023/03/27 02:37:38;;;;;;;2.40;1.20;;;2.60;99.90;;;;;;5159653;28;20432;-47
2023/03/27 02:40:27;;;;;;;1.20;1.00;;;2.50;99.90;;;;;;5177710;28;20431;-48
2023/03/27 02:43:13;;;;;;;2.30;0.80;;;2.40;99.90;;;;;;5168635;28;20480;-48
2023/03/27 02:45:55;;;;;;;2.33;1.00;;;2.30;99.90;;;;;;5160933;28;20442;-48
2023/03/27 02:48:30;;;;;;;1.43;1.03;;;2.20;99.90;;;;;;5162854;28;20944;-47
2023/03/27 02:51:06;;;;;;;0.97;0.70;;;2.20;99.90;;;;;;5158664;28;20432;-51
2023/03/27 02:53:51;;;;;;;0.80;0.80;;;2.20;99.90;;;;;;5163106;28;20482;-50
2023/03/27 02:56:26;;;;;;;1.43;1.10;;;2.30;99.90;;;;;;5164156;28;20486;-48
2023/03/27 02:59:07;;;;;;;1.40;1.13;;;2.30;99.90;;;;;;5163550;28;20463;-48
2023/03/27 03:01:39;;;;;;;0.80;0.80;;;2.30;99.90;;;;;;5161143;28;20973;-47
2023/03/27 03:04:25;;;;;;;1.70;0.80;;;2.30;99.90;;;;;;5160419;28;20984;-48
2023/03/27 03:06:57;;;;;;;0.70;0.70;;;2.50;99.90;;;;;;5161588;28;20501;-46
2023/03/27 03:09:30;;;;;;;7.03;1.60;;;2.60;99.90;;;;;;5162302;28;20809;-47
2023/03/27 03:12:00;;;;;;;1.03;0.93;;;2.70;99.90;;;;;;5161803;28;20508;-48
2023/03/27 03:14:35;;;;;;;3.10;1.10;;;2.50;99.90;;;;;;5163737;28;20499;-49
2023/03/27 03:17:06;;;;;;;1.13;1.00;;;2.50;99.90;;;;;;5162679;28;20257;-48
2023/03/27 03:19:36;;;;;;;1.00;0.80;;;2.50;99.90;;;;;;5159645;28;20619;-48
2023/03/27 03:22:08;;;;;;;1.47;0.70;;;2.30;99.90;;;;;;5159723;28;20181;-49
2023/03/27 03:24:40;;;;;;;0.97;0.87;;;2.20;99.90;;;;;;5163530;28;20236;-47
2023/03/27 03:27:13;;;;;;;3.07;1.20;;;2.20;99.90;;;;;;5160816;28;20466;-48
2023/03/27 03:29:43;;;;;;;1.03;0.87;;;2.00;99.90;;;;;;5162693;28;20428;-47
2023/03/27 03:32:14;;;;;;;0.70;0.70;;;2.00;99.90;;;;;;5166648;28;20424;-48
2023/03/27 03:34:47;;;;;;;2.70;0.90;;;1.90;99.90;;;;;;5163678;28;20740;-47
2023/03/27 03:37:19;;;;;;;4.63;1.00;;;1.80;99.90;;;;;;5160540;28;20479;-46
2023/03/27 03:39:50;;;;;;;1.37;1.10;;;1.70;99.90;;;;;;5162904;28;20428;-47
2023/03/27 03:42:22;;;;;;;2.40;1.00;;;1.70;99.90;;;;;;5164687;28;20460;-49
2023/03/27 03:44:53;;;;;;;0.90;0.83;;;1.60;99.90;;;;;;5165293;28;20456;-49
2023/03/27 03:47:24;;;;;;;1.43;0.93;;;1.50;99.90;;;;;;5167101;28;20502;-47
2023/03/27 03:49:55;;;;;;;0.90;0.90;;;1.50;99.90;;;;;;5165777;28;20515;-50
2023/03/27 03:52:26;;;;;;;0.93;0.60;;;1.50;99.90;;;;;;5169253;28;21000;-48
2023/03/27 03:54:57;;;;;;;1.27;1.17;;;1.50;99.90;;;;;;5170636;28;20587;-50
2023/03/27 03:57:27;;;;;;;1.13;1.13;;;1.40;99.90;;;;;;5171492;28;20432;-48
2023/03/27 03:59:58;;;;;;;0.63;0.63;;;1.50;99.90;;;;;;5166131;28;20463;-47
2023/03/27 04:02:29;;;;;;;1.80;0.60;;;1.50;99.90;;;;;;5160046;28;20728;-49
2023/03/27 04:05:00;;;;;;;1.57;0.77;;;1.40;99.90;;;;;;5154257;28;20231;-48
2023/03/27 04:07:34;;;;;;;0.87;0.57;;;1.40;99.90;;;;;;5167736;28;20181;-48
2023/03/27 04:10:06;;;;;;;1.30;1.10;;;1.30;99.90;;;;;;5165100;28;20458;-49
2023/03/27 04:12:37;;;;;;;1.10;1.10;;;1.30;99.90;;;;;;5165330;28;20523;-47
2023/03/27 04:15:08;;;;;;;2.37;1.30;;;1.30;99.90;;;;;;5151701;28;20468;-49
2023/03/27 04:17:38;;;;;;;2.00;0.90;;;1.30;99.90;;;;;;5167203;28;20177;-49
2023/03/27 04:20:11;;;;;;;0.97;0.97;;;1.30;99.90;;;;;;5163868;28;20435;-49
2023/03/27 04:22:48;;;;;;;4.00;1.37;;;1.30;99.90;;;;;;5162535;28;20219;-49
2023/03/27 04:25:21;;;;;;;1.60;0.80;;;1.30;99.90;;;;;;5165452;28;20431;-48
2023/03/27 04:27:52;;;;;;;1.03;1.03;;;1.30;99.90;;;;;;5165362;28;20440;-48
2023/03/27 04:30:24;;;;;;;5.03;1.40;;;1.30;99.90;;;;;;5164425;28;20432;-50
2023/03/27 04:32:58;;;;;;;2.43;1.37;;;1.30;99.90;;;;;;5160341;28;20220;-50
2023/03/27 04:35:29;;;;;;;3.30;1.10;;;1.40;99.90;;;;;;5166445;28;20466;-49
2023/03/27 04:38:01;;;;;;;2.23;1.10;;;1.40;99.90;;;;;;5164484;28;20525;-49
2023/03/27 04:40:32;;;;;;;1.37;1.37;;;1.40;99.90;;;;;;5163319;28;20188;-48
2023/03/27 04:43:03;;;;;;;5.03;1.50;;;1.30;99.90;;;;;;5164639;28;20551;-51
2023/03/27 04:45:33;;;;;;;1.30;1.30;;;1.40;99.90;;;;;;5167518;28;20629;-49
2023/03/27 04:48:05;;;;;;;1.37;1.37;;;1.40;99.90;;;;;;5167338;28;20180;-48
2023/03/27 04:50:36;;;;;;;3.70;2.90;;;1.30;99.90;;;;;;5158696;28;20205;-47
2023/03/27 04:53:07;;;;;;;1.10;1.10;;;1.40;99.90;;;;;;5162656;28;20471;-49
2023/03/27 04:55:39;;;;;;;4.23;1.43;;;1.30;99.90;;;;;;5165933;28;20467;-49
2023/03/27 04:58:11;;;;;;;3.17;2.20;;;1.40;99.90;;;;;;5168284;28;20438;-50
2023/03/27 05:00:42;;;;;;;2.03;1.43;;;1.40;99.90;;;;;;5161933;28;20506;-50
2023/03/27 05:03:13;;;;;;;3.63;1.30;;;1.50;99.90;;;;;;5163830;28;20461;-48
2023/03/27 05:05:48;;;;;;;1.23;1.00;;;1.60;99.90;;;;;;5164324;28;20428;-48
2023/03/27 05:08:19;;;;;;;2.30;1.27;;;1.70;99.90;;;;;;5143580;28;20642;-52
2023/03/27 05:10:49;;;;;;;1.53;1.43;;;1.80;99.90;;;;;;5157587;28;20437;-51
2023/03/27 05:13:20;;;;;;;2.60;1.40;;;2.00;99.90;;;;;;5159327;28;20682;-50
2023/03/27 05:15:51;;;;;;;2.70;1.87;;;2.10;99.90;;;;;;5160109;28;20189;-50
2023/03/27 05:18:21;;;;;;;5.43;2.00;;;2.10;99.90;;;;;;5157976;28;20193;-50
2023/03/27 05:20:52;;;;;;;2.67;1.80;;;2.10;99.90;;;;;;5160895;28;20634;-50
2023/03/27 05:23:23;;;;;;;3.87;1.80;;;2.00;99.90;;;;;;5162513;28;20196;-50
2023/03/27 05:25:55;;;;;;;2.00;1.40;;;2.00;99.90;;;;;;5158699;28;20591;-49
2023/03/27 05:28:25;;;;;;;1.33;1.33;;;1.90;99.90;;;;;;5161889;28;20662;-52
2023/03/27 05:30:56;;;;;;;2.83;1.47;;;1.80;99.90;;;;;;5160455;28;20456;-50
2023/03/27 05:33:27;;;;;;;1.80;1.70;;;1.80;99.90;;;;;;5158159;28;20208;-52
2023/03/27 05:35:57;;;;;;;2.20;1.00;;;1.80;99.90;;;;;;5161427;28;20216;-51
2023/03/27 05:38:28;;;;;;;4.53;1.63;;;1.90;99.90;;;;;;5154175;28;20185;-52
2023/03/27 05:41:01;;;;;;;1.90;1.57;;;1.90;99.90;;;;;;5158120;28;20182;-50
2023/03/27 05:43:31;;;;;;;1.70;1.67;;;1.90;99.90;;;;;;5159827;28;20205;-50
2023/03/27 05:46:03;;;;;;;2.17;1.93;;;2.00;99.90;;;;;;5160106;28;20447;-50
2023/03/27 05:48:33;;;;;;;5.50;2.33;;;2.10;99.90;;;;;;5155454;28;20193;-50
2023/03/27 05:51:05;;;;;;;3.03;2.17;;;2.10;99.90;;;;;;5157867;28;20432;-51
2023/03/27 05:53:38;;;;;;;4.07;2.03;;;2.10;99.90;;;;;;5178040;28;20219;-49
2023/03/27 05:56:09;;;;;;;5.33;1.90;;;2.00;99.90;;;;;;5150034;28;20448;-51
2023/03/27 05:58:40;;;;;;;1.63;1.53;;;2.20;99.90;;;;;;5168187;28;20975;-51
2023/03/27 06:01:12;;;;;;;3.20;1.17;;;3.00;99.90;;;;;;5150607;28;20200;-54
2023/03/27 06:03:43;;;;;;;4.57;1.57;;;4.40;99.90;;;;;;5152572;28;20467;-49
2023/03/27 06:06:15;;;;;;;8.30;1.50;;;5.90;99.90;;;;;;5162198;28;20440;-50
2023/03/27 06:08:46;;;;;;;9.40;1.77;;;7.80;99.90;;;;;;5166387;28;20440;-52
2023/03/27 06:11:16;;;;;;;4.07;1.80;;;9.50;86.40;;;;;;5165328;28;20431;-52
2023/03/27 06:13:47;;;;;;;3.50;1.40;;;11.70;67.40;;;;;;5158453;28;20209;-52
2023/03/27 06:16:21;;;;;;;1.90;1.57;;;13.60;55.00;;;;;;5166482;28;20264;-50
2023/03/27 06:18:52;;;;;;;1.40;1.23;;;15.20;48.60;;;;;;5161577;28;20278;-49
2023/03/27 06:21:23;;;;;;;1.83;1.10;;;16.30;43.20;;;;;;5167323;28;20996;-50
2023/03/27 06:23:55;;;;;;;1.10;1.03;;;16.10;40.20;;;;;;5168557;28;20205;-50
2023/03/27 06:26:27;;;;;;;4.00;1.40;;;16.70;39.40;;;;;;5158752;28;20178;-52
2023/03/27 06:28:57;;;;;;;0.80;0.80;;;17.10;38.30;;;;;;5162030;28;20535;-50
2023/03/27 06:31:28;;;;;;;1.63;1.53;;;17.70;37.60;;;;;;5159796;28;20472;-49
2023/03/27 06:33:58;;;;;;;1.07;0.97;;;18.40;35.90;;;;;;5163665;28;20205;-50
2023/03/27 06:36:31;;;;;;;2.80;0.93;;;18.70;33.90;;;;;;5164528;28;20244;-51
2023/03/27 06:39:03;;;;;;;4.00;1.37;;;18.70;33.80;;;;;;5165380;28;20249;-54
2023/03/27 06:41:34;;;;;;;3.63;2.10;;;18.60;33.70;;;;;;5163237;28;20980;-49
2023/03/27 06:44:05;;;;;;;4.30;1.50;;;19.30;34.30;;;;;;5158920;28;20465;-49
2023/03/27 06:46:36;;;;;;;1.20;1.10;;;20.40;32.00;;;;;;5164360;28;20185;-52
2023/03/27 06:49:07;;;;;;;1.90;1.20;;;20.80;30.20;;;;;;5157501;28;20633;-49
2023/03/27 06:51:37;;;;;;;3.90;1.30;;;19.40;30.80;;;;;;5158614;28;20170;-51
2023/03/27 06:54:08;;;;;;;2.03;1.93;;;16.40;33.40;;;;;;5160738;28;20224;-52
2023/03/27 06:56:39;;;;;;;2.67;2.00;;;12.80;37.70;;;;;;5160629;28;20189;-49
2023/03/27 06:59:10;;;;;;;1.97;1.87;;;10.50;42.80;;;;;;5161867;28;20705;-50
2023/03/27 07:01:40;;;;;;;1.83;1.70;;;9.10;47.70;;;;;;5165212;28;20189;-50
2023/03/27 07:04:12;;;;;;;1.60;1.50;;;7.90;50.80;;;;;;5165412;28;20962;-50
2023/03/27 07:06:42;;;;;;;1.60;1.43;;;6.90;54.30;;;;;;5164813;28;20174;-50
2023/03/27 07:09:13;;;;;;;2.70;1.70;;;6.40;63.10;;;;;;5162070;28;20455;-51
2023/03/27 07:11:44;;;;;;;4.23;1.63;;;8.00;64.40;;;;;;5162000;28;20223;-51
2023/03/27 07:14:15;;;;;;;3.43;1.53;;;10.00;56.10;;;;;;5162691;28;20681;-51
2023/03/27 07:16:45;;;;;;;3.47;1.50;;;12.60;47.80;;;;;;5165875;28;20188;-50
2023/03/27 07:19:16;;;;;;;1.70;1.20;;;13.90;43.30;;;;;;5163000;28;20608;-51
2023/03/27 07:21:46;;;;;;;5.50;1.13;;;15.30;41.00;;;;;;5165425;28;20185;-50
2023/03/27 07:24:17;;;;;;;3.87;1.57;;;16.30;38.60;;;;;;5164172;28;20231;-50
2023/03/27 07:26:47;;;;;;;1.60;1.50;;;16.90;36.80;;;;;;5155002;28;20666;-51
2023/03/27 07:29:18;;;;;;;2.33;1.77;;;17.00;35.10;;;;;;5160663;28;20193;-49
2023/03/27 07:31:49;;;;;;;4.83;1.77;;;17.20;36.90;;;;;;5161751;28;20193;-50
2023/03/27 07:34:19;;;;;;;2.70;0.93;;;17.70;35.00;;;;;;5163294;28;20247;-50
2023/03/27 07:36:50;;;;;;;1.00;1.00;;;17.40;34.40;;;;;;5162106;28;20213;-51
2023/03/27 07:39:21;;;;;;;4.33;1.33;;;15.30;35.30;;;;;;5159343;28;20395;-51
2023/03/27 07:41:52;;;;;;;1.40;1.30;;;13.30;40.10;;;;;;5166183;28;20192;-53
2023/03/27 07:44:22;;;;;;;1.33;1.00;;;14.00;39.70;;;;;;5161327;28;20232;-52
2023/03/27 07:46:53;;;;;;;2.10;1.43;;;13.20;38.80;;;;;;5153292;28;20204;-52
2023/03/27 07:49:23;;;;;;;2.70;1.30;;;12.40;40.90;;;;;;5162197;28;20260;-50
2023/03/27 07:51:54;;;;;;;1.33;1.10;;;11.00;43.40;;;;;;5166068;28;20206;-51
2023/03/27 07:54:25;;;;;;;2.33;1.37;;;9.80;46.10;;;;;;5147297;28;20304;-49
2023/03/27 07:56:56;;;;;;;14.13;1.03;;;9.30;48.50;;;;;;5160705;28;20185;-50
2023/03/27 07:59:27;;;;;;;0.90;0.90;;;10.10;46.70;;;;;;5143209;28;20446;-49
2023/03/27 08:01:58;;;;;;;1.97;1.40;;;10.50;45.80;;;;;;5164005;28;20185;-48
2023/03/27 08:04:28;;;;;;;1.50;1.40;;;9.30;47.10;;;;;;5162276;28;20208;-50
2023/03/27 08:06:59;;;;;;;2.43;1.07;;;8.50;49.70;;;;;;5161117;28;20234;-50
2023/03/27 08:09:30;;;;;;;1.07;1.07;;;7.80;49.90;;;;;;5162363;28;20532;-49
2023/03/27 08:12:02;;;;;;;8.27;1.47;;;7.20;51.30;;;;;;5171470;28;20189;-50
2023/03/27 08:14:33;;;;;;;4.77;1.33;;;6.90;53.20;;;;;;5172948;28;20443;-50
2023/03/27 08:17:03;;;;;;;2.30;1.70;;;6.60;55.80;;;;;;5149394;28;20932;-50
2023/03/27 08:19:34;;;;;;;1.43;1.30;;;7.50;55.70;;;;;;5156660;28;20185;-49
2023/03/27 08:22:04;;;;;;;1.20;1.10;;;8.30;52.60;;;;;;5163051;28;20192;-51
2023/03/27 08:24:35;;;;;;;1.40;0.97;;;8.70;50.70;;;;;;5161107;28;20227;-50
2023/03/27 08:27:06;;;;;;;0.83;0.83;;;9.30;50.90;;;;;;5162254;28;20573;-51
2023/03/27 08:29:37;;;;;;;3.20;1.10;;;9.10;48.30;;;;;;5160427;28;20221;-52
2023/03/27 08:32:12;;;;;;;1.67;1.40;;;9.30;48.60;;;;;;5154970;28;20185;-50
2023/03/27 08:34:42;;;;;;;0.77;0.77;;;9.10;47.80;;;;;;5159819;28;20446;-49
2023/03/27 08:37:13;;;;;;;1.80;1.30;;;8.90;48.90;;;;;;5161651;28;20452;-51
2023/03/27 08:39:45;;;;;;;1.20;1.17;;;8.70;49.10;;;;;;5167233;28;20193;-49
2023/03/27 08:42:21;;;;;;;3.13;1.40;;;8.50;49.50;;;;;;5162068;28;20193;-50
2023/03/27 08:44:54;;;;;;;1.60;0.87;;;8.40;49.50;;;;;;5161052;28;20943;-49
2023/03/27 08:47:36;;;;;;;0.80;0.80;;;8.00;47.20;;;;;;5155166;28;20950;-49
2023/03/27 08:50:44;;;;;;;1.90;0.90;;;7.50;48.70;;;;;;5160651;28;20451;-50
2023/03/27 08:53:27;;;;;;;1.90;1.07;;;7.40;50.50;;;;;;5164017;28;21023;-50
2023/03/27 08:55:58;;;;;;;2.67;1.43;;;7.50;51.30;;;;;;5162876;28;20873;-51
2023/03/27 08:58:29;;;;;;;1.53;0.83;;;7.30;51.70;;;;;;5156165;28;20488;-50
2023/03/27 09:01:03;;;;;;;1.43;0.67;;;7.20;51.80;;;;;;5161418;28;20184;-49
2023/03/27 09:03:39;;;;;;;1.10;1.10;;;6.90;51.70;;;;;;5163546;28;20200;-49
2023/03/27 09:06:26;;;;;;;0.93;0.90;;;7.00;53.30;;;;;;5162925;28;20566;-48
2023/03/27 09:09:10;;;;;;;1.53;1.43;;;7.30;53.70;;;;;;5170678;28;20516;-49
2023/03/27 09:11:59;;;;;;;0.90;0.90;;;7.70;53.30;;;;;;5160436;28;20472;-50
2023/03/27 09:14:42;;;;;;;1.10;1.00;;;7.60;53.30;;;;;;5163004;28;20514;-51
2023/03/27 09:17:25;;;;;;;1.03;0.77;;;7.50;52.00;;;;;;5149813;28;20843;-51
2023/03/27 09:20:07;;;;;;;0.80;0.73;;;7.50;51.60;;;;;;5149510;28;20531;-50
2023/03/27 09:22:44;;;;;;;2.20;1.23;;;7.50;51.50;;;;;;5152886;28;20456;-51
2023/03/27 09:25:31;;;;;;;1.77;1.10;;;7.50;51.70;;;;;;5165773;28;20468;-51
2023/03/27 09:28:02;;;;;;;1.13;0.80;;;7.40;50.40;;;;;;5157702;28;20439;-50
2023/03/27 09:30:33;;;;;;;1.30;1.30;;;7.40;51.40;;;;;;5159558;28;20413;-52
2023/03/27 09:33:05;;;;;;;1.97;1.77;;;7.30;51.80;;;;;;5158380;28;20499;-49
2023/03/27 09:35:37;;;;;;;3.93;1.60;;;7.10;51.70;;;;;;5166445;28;20440;-51
2023/03/27 09:38:25;;;;;;;1.13;1.13;;;6.80;52.40;;;;;;5153581;28;20436;-50
2023/03/27 09:41:14;;;;;;;2.67;1.13;;;6.70;53.20;;;;;;5160516;28;20443;-49
2023/03/27 09:44:02;;;;;;;1.57;1.47;;;6.70;52.40;;;;;;5162651;28;20496;-49
2023/03/27 09:46:36;;;;;;;3.10;1.20;;;6.60;52.30;;;;;;5162173;28;20507;-50
2023/03/27 09:49:19;;;;;;;4.10;1.23;;;7.00;51.50;;;;;;5146175;28;20428;-53
2023/03/27 09:51:52;;;;;;;0.73;0.70;;;7.20;51.20;;;;;;5162049;28;20428;-49
2023/03/27 09:54:27;;;;;;;4.07;1.60;;;7.30;51.80;;;;;;5161249;28;20467;-51
2023/03/27 09:57:10;;;;;;;4.10;0.87;;;7.40;51.70;;;;;;5151333;28;20530;-51
2023/03/27 09:59:58;;;;;;;1.53;1.20;;;7.40;49.80;;;;;;5160967;28;20436;-50
2023/03/27 10:02:30;;;;;;;1.37;1.07;;;7.50;49.70;;;;;;5158139;28;20510;-49
2023/03/27 10:05:10;;;;;;;1.23;0.83;;;7.80;48.90;;;;;;5153596;28;20469;-50
2023/03/27 10:07:42;;;;;;;1.00;1.00;;;7.90;47.80;;;;;;5161757;28;20522;-50
2023/03/27 10:10:16;;;;;;;1.33;0.97;;;8.10;47.90;;;;;;5161369;28;20540;-51
2023/03/27 10:12:56;;;;;;;0.87;0.60;;;8.20;45.60;;;;;;5164866;28;20448;-51
2023/03/27 10:15:37;;;;;;;2.10;0.70;;;7.60;44.80;;;;;;5152493;28;20446;-49
2023/03/27 10:18:29;;;;;;;1.83;1.10;;;7.50;44.80;;;;;;5157741;28;20432;-50
2023/03/27 10:21:09;;;;;;;2.00;1.10;;;7.80;45.20;;;;;;5162850;28;20439;-51
2023/03/27 10:23:42;;;;;;;0.83;0.83;;;7.90;45.50;;;;;;5160584;28;20534;-48
2023/03/27 10:26:17;;;;;;;1.13;1.03;;;8.00;46.00;;;;;;5177673;23;21032;-49
2023/03/27 10:28:53;;;;;;;6.60;3.87;;;7.90;45.90;;;;;;5165298;28;20466;-50
2023/03/27 10:31:36;;;;;;;1.20;1.10;;;7.80;46.60;;;;;;5166351;28;20451;-48
2023/03/27 10:34:36;;;;;;;2.67;1.37;;;7.70;47.00;;;;;;5163290;28;20494;-48
2023/03/27 10:37:25;;;;;;;1.33;1.07;;;7.70;45.00;;;;;;5157520;28;20499;-48
2023/03/27 10:39:58;;;;;;;0.90;0.90;;;7.70;44.40;;;;;;5154699;28;20433;-45
2023/03/27 10:42:31;;;;;;;0.60;0.60;;;7.40;43.90;;;;;;5161834;28;20535;-48
2023/03/27 10:45:03;;;;;;;1.63;1.50;;;7.40;45.00;;;;;;5160149;28;21011;-47
2023/03/27 10:47:34;;;;;;;4.50;2.47;;;7.50;45.00;;;;;;5146824;28;20932;-47
2023/03/27 10:50:29;;;;;;;1.07;0.93;;;7.40;45.50;;;;;;5161826;28;20443;-45
2023/03/27 10:53:21;;;;;;;0.70;0.70;;;7.30;45.40;;;;;;5155062;28;20448;-49
2023/03/27 10:56:26;;;;;;;1.03;0.80;;;7.30;43.30;;;;;;5158657;28;20824;-48
2023/03/27 10:59:15;;;;;;;1.10;1.00;;;7.20;44.10;;;;;;5176961;28;20447;-47
2023/03/27 11:01:52;;;;;;;2.20;2.10;;;7.40;45.20;;;;;;5161735;28;20490;-48
2023/03/27 11:04:37;;;;;;;4.70;2.50;;;7.50;45.80;;;;;;5159359;28;20991;-49
2023/03/27 11:07:21;;;;;;;21.13;8.07;;;7.80;46.70;;;;;;5159759;28;20435;-48
2023/03/27 11:10:01;;;;;;;1.73;1.50;;;8.10;44.90;;;;;;5164325;28;20463;-53
2023/03/27 11:12:36;;;;;;;3.80;2.83;;;8.70;41.40;;;;;;5161491;28;20427;-46
2023/03/27 11:15:14;;;;;;;2.50;2.30;;;9.00;41.20;;;;;;5163561;28;20869;-48
2023/03/27 11:18:00;;;;;;;2.20;1.70;;;8.70;40.50;;;;;;5164781;28;20502;-48
2023/03/27 11:20:35;;;;;;;6.40;2.57;;;8.20;39.70;;;;;;5165034;28;21026;-47
2023/03/27 11:23:21;;;;;;;16.10;4.53;;;8.10;40.70;;;;;;5163966;28;20467;-48
2023/03/27 11:25:53;;;;;;;3.23;1.73;;;8.20;40.50;;;;;;5168768;28;20603;-49
2023/03/27 11:28:40;;;;;;;1.73;1.63;;;8.60;40.50;;;;;;5162230;28;20431;-48
2023/03/27 11:31:42;;;;;;;1.13;1.03;;;9.00;40.50;;;;;;5165364;28;20951;-47
2023/03/27 11:34:36;;;;;;;4.63;2.10;;;9.20;40.30;;;;;;5159473;28;20511;-49
2023/03/27 11:37:19;;;;;;;3.93;3.53;;;8.90;39.30;;;;;;5158984;28;20522;-48
2023/03/27 11:40:19;;;;;;;2.03;1.70;;;8.50;39.00;;;;;;5160958;28;20443;-50
2023/03/27 11:42:50;;;;;;;1.43;1.20;;;8.00;40.20;;;;;;5163950;28;20798;-48
2023/03/27 11:45:28;;;;;;;1.67;1.57;;;7.80;40.50;;;;;;5165481;28;20503;-46
2023/03/27 11:48:29;;;;;;;1.30;1.20;;;8.00;40.80;;;;;;5162808;28;20172;-48
2023/03/27 11:51:21;;;;;;;6.67;3.30;;;8.00;38.90;;;;;;5159534;28;20956;-47
2023/03/27 11:54:29;;;;;;;4.63;2.70;;;7.90;39.20;;;;;;5157170;28;20437;-46
2023/03/27 11:57:09;;;;;;;1.27;1.20;;;8.20;40.00;;;;;;5156402;28;20490;-47
2023/03/27 11:59:59;;;;;;;2.30;1.30;;;8.40;40.40;;;;;;5163771;28;20459;-47
2023/03/27 12:03:08;;;;;;;1.60;1.50;;;8.70;41.00;;;;;;5159392;28;20447;-52
2023/03/27 12:06:04;;;;;;;2.07;1.97;;;9.10;40.30;;;;;;5173850;28;20634;-48
2023/03/27 12:09:15;;;;;;;4.00;3.47;;;8.90;40.60;;;;;;5155269;28;20487;-47
2023/03/27 12:12:12;;;;;;;1.10;0.83;;;8.70;39.10;;;;;;5156075;28;20483;-50
2023/03/27 12:15:16;;;;;;;2.60;1.00;;;8.50;38.90;;;;;;5160567;28;20997;-48
2023/03/27 12:18:00;;;;;;;0.80;0.80;;;8.30;40.00;;;;;;5162503;28;20435;-51
2023/03/27 12:21:09;;;;;;;1.30;1.10;;;8.20;40.90;;;;;;5163986;28;20424;-47
2023/03/27 12:23:49;;;;;;;3.10;0.93;;;8.20;41.10;;;;;;5162386;28;20506;-49
2023/03/27 12:26:42;;;;;;;1.17;1.17;;;8.20;40.90;;;;;;5166433;28;20503;-47
2023/03/27 12:29:31;;;;;;;1.30;1.30;;;8.30;40.90;;;;;;5159258;28;20442;-48
2023/03/27 12:32:21;;;;;;;1.70;1.00;;;8.50;41.00;;;;;;5148107;28;20455;-48
2023/03/27 12:35:19;;;;;;;3.83;2.70;;;8.80;41.10;;;;;;5169460;28;20460;-50
2023/03/27 12:38:03;;;;;;;1.20;1.03;;;9.30;40.70;;;;;;5166585;28;20440;-49
2023/03/27 12:40:37;;;;;;;1.27;0.80;;;9.10;40.60;;;;;;5181404;28;20515;-47
2023/03/27 12:43:20;;;;;;;0.67;0.67;;;9.20;40.10;;;;;;5170735;28;20931;-49
2023/03/27 12:46:08;;;;;;;2.20;1.17;;;9.20;38.30;;;;;;5164157;28;20459;-47
2023/03/27 12:48:54;;;;;;;4.93;1.10;;;8.90;38.90;;;;;;5168620;28;20432;-47
2023/03/27 12:51:36;;;;;;;5.90;0.97;;;8.50;40.20;;;;;;5168532;28;20441;-47
2023/03/27 12:54:25;;;;;;;3.43;1.37;;;8.50;41.30;;;;;;5167404;28;20482;-46
2023/03/27 12:57:21;;;;;;;3.50;1.00;;;8.30;41.70;;;;;;5155472;28;20932;-48
2023/03/27 12:59:58;;;;;;;1.47;1.37;;;8.40;42.40;;;;;;5165374;28;20825;-49
2023/03/27 13:02:47;;;;;;;1.47;1.43;;;8.40;41.90;;;;;;5155326;28;20444;-47
2023/03/27 13:05:27;;;;;;;6.17;2.60;;;8.40;42.00;;;;;;5164023;28;20510;-47
2023/03/27 13:08:08;;;;;;;3.80;1.60;;;8.30;41.70;;;;;;5166063;28;20440;-47
2023/03/27 13:10:48;;;;;;;2.33;1.50;;;7.90;45.30;;;;;;5153748;28;20464;-47
2023/03/27 13:13:46;;;;;;;6.03;2.50;;;7.40;48.20;;;;;;5166080;28;20419;-47
2023/03/27 13:16:44;;;;;;;3.07;1.77;;;7.20;49.10;;;;;;5164228;28;20499;-49
2023/03/27 13:19:24;;;;;;;1.23;1.20;;;7.20;50.80;;;;;;5159267;28;20473;-49
2023/03/27 13:22:16;;;;;;;0.87;0.87;;;7.30;51.00;;;;;;5174131;28;20427;-46
2023/03/27 13:25:06;;;;;;;2.40;1.37;;;7.30;51.50;;;;;;5181867;28;20472;-46
2023/03/27 13:28:01;;;;;;;0.97;0.80;;;7.40;52.30;;;;;;5165757;28;20439;-45
2023/03/27 13:30:56;;;;;;;1.63;1.53;;;7.20;52.10;;;;;;5168922;28;20432;-46
2023/03/27 13:33:34;;;;;;;2.00;1.87;;;6.70;53.00;;;;;;5163543;28;20436;-47
2023/03/27 13:36:16;;;;;;;3.07;1.70;;;6.30;54.40;;;;;;5165209;28;20537;-46
2023/03/27 13:38:52;;;;;;;2.40;1.57;;;6.10;56.10;;;;;;5159583;28;20436;-49
2023/03/27 13:41:50;;;;;;;6.77;1.60;;;5.90;57.40;;;;;;5171853;28;20439;-49
2023/03/27 13:44:27;;;;;;;2.63;1.80;;;6.10;57.80;;;;;;5161221;28;20472;-50
2023/03/27 13:47:22;;;;;;;4.10;1.70;;;6.30;58.80;;;;;;5159338;28;20483;-49
2023/03/27 13:50:11;;;;;;;1.43;1.17;;;6.50;58.50;;;;;;5152888;28;20437;-49